Time;durP1;ratioP1;P1;durP2;ratioP2;P2;SDS_P1;SDS_P2;PMS_P1;PMS_P2;Temp;Humidity;BMP_temperature;BMP_pressure;BME280_temperature;BME280_humidity;BME280_pressure;Samples;Min_cycle;Max_cycle;Signal;HPM_P1;HPM_P2
2022/02/23 00:01:31;;;;;;;;;;;22.20;45.50;;;;;;5156706;27;19931;-45
2022/02/23 00:03:59;;;;;;;;;;;22.20;45.50;;;;;;5156634;27;20383;-52
2022/02/23 00:06:27;;;;;;;;;;;22.20;45.50;;;;;;5157346;27;19923;-46
2022/02/23 00:08:55;;;;;;;;;;;22.20;45.50;;;;;;5157579;27;19968;-49
2022/02/23 00:11:22;;;;;;;;;;;22.20;45.50;;;;;;5157477;27;20328;-49
2022/02/23 00:13:49;;;;;;;;;;;22.20;45.50;;;;;;5157154;27;20390;-48
2022/02/23 00:16:16;;;;;;;;;;;22.20;45.50;;;;;;5156086;27;19927;-50
2022/02/23 00:18:43;;;;;;;;;;;22.20;45.50;;;;;;5156515;27;19923;-47
2022/02/23 00:21:10;;;;;;;;;;;22.20;45.50;;;;;;5157381;27;19930;-48
2022/02/23 00:23:37;;;;;;;;;;;22.20;45.50;;;;;;5157171;27;19962;-48
2022/02/23 00:26:04;;;;;;;;;;;22.20;45.50;;;;;;5157278;27;20328;-48
2022/02/23 00:28:33;;;;;;;;;;;22.20;45.50;;;;;;5156916;27;19995;-52
2022/02/23 00:31:00;;;;;;;;;;;22.20;45.50;;;;;;5145898;27;19927;-52
2022/02/23 00:33:27;;;;;;;;;;;22.20;45.50;;;;;;5136408;27;20010;-51
2022/02/23 00:35:54;;;;;;;;;;;22.20;45.50;;;;;;5153203;27;19923;-49
2022/02/23 00:38:21;;;;;;;;;;;22.20;45.50;;;;;;5156702;27;19923;-53
2022/02/23 00:40:48;;;;;;;;;;;22.20;45.50;;;;;;5156635;27;19970;-47
2022/02/23 00:43:15;;;;;;;;;;;22.20;45.50;;;;;;5156914;27;20327;-49
2022/02/23 00:45:42;;;;;;;;;;;22.20;45.50;;;;;;5137771;27;19930;-48
2022/02/23 00:48:09;;;;;;;;;;;22.20;45.50;;;;;;5156794;27;20002;-45
2022/02/23 00:50:36;;;;;;;;;;;22.20;45.50;;;;;;5137297;27;19973;-46
2022/02/23 00:53:03;;;;;;;;;;;22.10;45.40;;;;;;5138135;27;19927;-49
2022/02/23 00:55:30;;;;;;;;;;;22.20;45.50;;;;;;5156018;27;19968;-45
2022/02/23 00:57:56;;;;;;;;;;;22.10;45.40;;;;;;5138370;27;19956;-46
2022/02/23 01:00:24;;;;;;;;;;;22.20;45.50;;;;;;5155342;27;19923;-45
2022/02/23 01:02:53;;;;;;;;;;;22.10;45.40;;;;;;5156200;27;19923;-44
2022/02/23 01:05:21;;;;;;;;;;;22.20;46.10;;;;;;5155406;27;20434;-49
2022/02/23 01:07:48;;;;;;;;;;;22.20;45.50;;;;;;5156463;27;20383;-49
2022/02/23 01:10:15;;;;;;;;;;;22.10;45.40;;;;;;5138104;27;19927;-47
2022/02/23 01:12:42;;;;;;;;;;;22.10;45.40;;;;;;5156270;27;19971;-47
2022/02/23 01:15:10;;;;;;;;;;;22.10;45.40;;;;;;5155992;27;20409;-48
2022/02/23 01:17:38;;;;;;;;;;;22.20;45.50;;;;;;5154913;27;19976;-46
2022/02/23 01:20:06;;;;;;;;;;;22.20;45.50;;;;;;5154603;27;20316;-48
2022/02/23 01:22:33;;;;;;;;;;;22.10;45.40;;;;;;5155313;27;20021;-46
2022/02/23 01:25:00;;;;;;;;;;;22.10;45.40;;;;;;5155122;27;19924;-46
2022/02/23 01:27:28;;;;;;;;;;;22.10;45.40;;;;;;5154961;27;19923;-45
2022/02/23 01:29:56;;;;;;;;;;;22.10;45.40;;;;;;5155236;27;19972;-45
2022/02/23 01:32:24;;;;;;;;;;;22.20;45.50;;;;;;5154158;27;19991;-48
2022/02/23 01:34:51;;;;;;;;;;;22.20;45.50;;;;;;5154653;27;19995;-45
2022/02/23 01:37:19;;;;;;;;;;;22.20;45.50;;;;;;5155126;27;19972;-47
2022/02/23 01:39:46;;;;;;;;;;;22.10;45.40;;;;;;5154789;27;19927;-46
2022/02/23 01:42:13;;;;;;;;;;;22.20;45.50;;;;;;5155052;27;19923;-48
2022/02/23 01:44:40;;;;;;;;;;;22.10;45.40;;;;;;5154988;27;19927;-47
2022/02/23 01:47:07;;;;;;;;;;;22.10;45.40;;;;;;5153620;27;19923;-48
2022/02/23 01:49:34;;;;;;;;;;;22.10;45.40;;;;;;5154958;27;19973;-47
2022/02/23 01:52:03;;;;;;;;;;;22.10;45.40;;;;;;5133604;27;20325;-46
2022/02/23 01:54:30;;;;;;;;;;;22.20;45.50;;;;;;5134070;28;19970;-45
2022/02/23 01:56:57;;;;;;;;;;;22.20;45.50;;;;;;5134375;28;19971;-47
2022/02/23 01:59:24;;;;;;;;;;;22.20;45.50;;;;;;5133820;28;20418;-45
2022/02/23 02:01:52;;;;;;;;;;;22.10;45.40;;;;;;5142243;27;19923;-47
2022/02/23 02:04:21;;;;;;;;;;;22.10;45.40;;;;;;5154722;27;20286;-46
2022/02/23 02:06:51;;;;;;;;;;;22.10;45.40;;;;;;5152273;27;19927;-48
2022/02/23 02:09:18;;;;;;;;;;;22.10;45.40;;;;;;5154312;27;20405;-48
2022/02/23 02:11:45;;;;;;;;;;;22.10;45.40;;;;;;5154231;27;20382;-45
2022/02/23 02:14:12;;;;;;;;;;;22.10;45.40;;;;;;5154271;27;19974;-47
2022/02/23 02:16:39;;;;;;;;;;;22.10;45.40;;;;;;5153048;27;19976;-46
2022/02/23 02:19:06;;;;;;;;;;;22.10;45.40;;;;;;5084663;27;1938307;-48
2022/02/23 02:22:03;;;;;;;;;;;22.10;45.40;;;;;;5154433;27;20013;-49
2022/02/23 02:24:31;;;;;;;;;;;22.10;45.40;;;;;;5133366;27;20271;-48
2022/02/23 02:26:59;;;;;;;;;;;22.20;45.50;;;;;;5136676;27;20417;-46
2022/02/23 02:29:27;;;;;;;;;;;22.10;45.40;;;;;;5155368;27;20350;-45
2022/02/23 02:31:54;;;;;;;;;;;22.10;45.40;;;;;;5154098;27;19923;-47
2022/02/23 02:34:22;;;;;;;;;;;22.10;45.40;;;;;;5156063;27;19958;-47
2022/02/23 02:36:50;;;;;;;;;;;22.10;45.40;;;;;;5154624;27;20301;-45
2022/02/23 02:39:20;;;;;;;;;;;22.10;45.40;;;;;;5155241;27;19987;-50
2022/02/23 02:41:46;;;;;;;;;;;22.10;45.40;;;;;;5154896;27;20431;-46
2022/02/23 02:44:14;;;;;;;;;;;22.10;45.40;;;;;;5154870;27;19930;-45
2022/02/23 02:46:41;;;;;;;;;;;22.10;45.40;;;;;;5153797;27;20025;-47
2022/02/23 02:49:08;;;;;;;;;;;22.10;45.40;;;;;;5155148;27;19923;-46
2022/02/23 02:51:37;;;;;;;;;;;22.10;45.40;;;;;;5154108;27;20326;-47
2022/02/23 02:54:04;;;;;;;;;;;22.10;45.40;;;;;;5136370;27;20413;-48
2022/02/23 02:56:32;;;;;;;;;;;22.10;45.40;;;;;;5155094;27;20346;-47
2022/02/23 02:58:59;;;;;;;;;;;22.10;45.40;;;;;;5154696;27;20018;-47
2022/02/23 03:01:28;;;;;;;;;;;22.10;45.40;;;;;;5153924;27;19969;-46
2022/02/23 03:03:55;;;;;;;;;;;22.10;45.40;;;;;;5154783;27;19963;-49
2022/02/23 03:06:22;;;;;;;;;;;22.10;45.40;;;;;;5135901;27;19923;-45
2022/02/23 03:08:49;;;;;;;;;;;22.10;45.40;;;;;;5136903;27;19931;-45
2022/02/23 03:11:17;;;;;;;;;;;22.10;45.40;;;;;;5154521;27;20434;-48
2022/02/23 03:13:45;;;;;;;;;;;22.10;45.40;;;;;;5155141;27;19923;-47
2022/02/23 03:16:12;;;;;;;;;;;22.10;45.40;;;;;;5154841;27;19984;-45
2022/02/23 03:18:39;;;;;;;;;;;22.10;45.40;;;;;;5136817;27;20037;-47
2022/02/23 03:21:07;;;;;;;;;;;22.10;45.40;;;;;;5157358;27;19927;-48
2022/02/23 03:23:34;;;;;;;;;;;22.10;45.40;;;;;;5158051;27;20026;-49
2022/02/23 03:26:01;;;;;;;;;;;22.10;45.40;;;;;;5158137;27;20409;-46
2022/02/23 03:28:29;;;;;;;;;;;22.10;45.40;;;;;;5139794;27;19966;-46
2022/02/23 03:30:56;;;;;;;;;;;22.10;45.40;;;;;;5158084;27;20465;-48
2022/02/23 03:33:24;;;;;;;;;;;22.10;45.40;;;;;;5138828;27;20014;-49
2022/02/23 03:35:51;;;;;;;;;;;22.10;45.40;;;;;;5157950;27;20030;-46
2022/02/23 03:38:18;;;;;;;;;;;22.10;45.40;;;;;;5157670;27;19972;-45
2022/02/23 03:40:45;;;;;;;;;;;22.10;45.40;;;;;;5157869;27;20013;-50
2022/02/23 03:43:16;;;;;;;;;;;22.10;45.40;;;;;;5139507;27;20022;-46
2022/02/23 03:45:46;;;;;;;;;;;22.10;45.40;;;;;;5157791;27;20025;-47
2022/02/23 03:48:13;;;;;;;;;;;22.10;45.40;;;;;;5156783;27;20006;-49
2022/02/23 03:50:40;;;;;;;;;;;22.10;45.40;;;;;;5157989;27;19963;-46
2022/02/23 03:53:07;;;;;;;;;;;22.10;45.40;;;;;;5156518;27;19923;-49
2022/02/23 03:55:35;;;;;;;;;;;22.10;45.40;;;;;;5158433;27;20279;-49
2022/02/23 03:58:02;;;;;;;;;;;22.10;45.40;;;;;;5157545;27;19962;-51
2022/02/23 04:00:29;;;;;;;;;;;22.10;45.40;;;;;;5157420;27;19931;-46
2022/02/23 04:02:56;;;;;;;;;;;22.10;45.40;;;;;;5138358;27;19934;-49
2022/02/23 04:05:23;;;;;;;;;;;22.10;45.40;;;;;;5139375;27;20017;-49
2022/02/23 04:07:50;;;;;;;;;;;22.10;45.50;;;;;;5138419;27;20002;-52
2022/02/23 04:10:19;;;;;;;;;;;22.10;45.40;;;;;;5157597;27;20005;-48
2022/02/23 04:12:47;;;;;;;;;;;22.10;45.50;;;;;;5157150;27;20370;-50
2022/02/23 04:15:14;;;;;;;;;;;22.10;45.40;;;;;;5157515;27;19946;-47
2022/02/23 04:17:41;;;;;;;;;;;22.10;45.40;;;;;;5156119;27;19973;-46
2022/02/23 04:20:08;;;;;;;;;;;22.10;45.50;;;;;;5157279;27;19980;-49
2022/02/23 04:22:36;;;;;;;;;;;22.10;45.50;;;;;;5155984;27;20389;-47
2022/02/23 04:25:03;;;;;;;;;;;22.10;45.50;;;;;;5157018;27;19923;-51
2022/02/23 04:27:30;;;;;;;;;;;22.10;45.50;;;;;;5157174;27;19923;-49
2022/02/23 04:29:57;;;;;;;;;;;22.10;45.50;;;;;;5137531;27;20021;-49
2022/02/23 04:32:24;;;;;;;;;;;22.10;45.50;;;;;;5138012;27;20009;-49
2022/02/23 04:34:53;;;;;;;;;;;22.10;45.50;;;;;;5156899;27;20345;-46
2022/02/23 04:37:29;;;;;;;;;;;22.10;45.50;;;;;;5156294;27;20282;-49
2022/02/23 04:39:59;;;;;;;;;;;22.10;45.50;;;;;;5157619;27;19946;-50
2022/02/23 04:42:27;;;;;;;;;;;22.10;45.50;;;;;;5156979;27;19923;-47
2022/02/23 04:45:00;;;;;;;;;;;22.10;45.50;;;;;;5156594;27;20362;-49
2022/02/23 04:47:30;;;;;;;;;;;22.10;45.40;;;;;;5157096;27;19923;-47
2022/02/23 04:49:58;;;;;;;;;;;22.10;45.50;;;;;;5135772;27;19924;-46
2022/02/23 04:52:25;;;;;;;;;;;22.10;45.40;;;;;;5140806;27;19924;-45
2022/02/23 04:54:55;;;;;;;;;;;22.10;45.50;;;;;;5156435;27;19923;-45
2022/02/23 04:57:22;;;;;;;;;;;22.00;45.40;;;;;;5156649;27;19931;-46
2022/02/23 04:59:50;;;;;;;;;;;22.00;45.40;;;;;;5156300;27;20012;-53
2022/02/23 05:02:17;;;;;;;;;;;22.00;45.40;;;;;;5156575;27;19952;-49
2022/02/23 05:04:44;;;;;;;;;;;22.00;45.50;;;;;;5155120;27;20014;-48
2022/02/23 05:07:10;;;;;;;;;;;22.00;45.40;;;;;;5155456;27;20025;-48
2022/02/23 05:09:37;;;;;;;;;;;22.00;45.50;;;;;;5138138;27;19923;-47
2022/02/23 05:12:06;;;;;;;;;;;22.10;45.50;;;;;;5138054;27;19926;-46
2022/02/23 05:14:33;;;;;;;;;;;22.00;45.40;;;;;;5156049;27;19923;-49
2022/02/23 05:17:00;;;;;;;;;;;22.00;45.40;;;;;;5156321;27;20010;-45
2022/02/23 05:19:29;;;;;;;;;;;22.10;45.50;;;;;;5154776;27;19966;-49
2022/02/23 05:21:57;;;;;;;;;;;22.00;45.40;;;;;;5155694;27;19923;-48
2022/02/23 05:24:24;;;;;;;;;;;22.00;45.40;;;;;;5136672;27;19962;-48
2022/02/23 05:26:51;;;;;;;;;;;22.00;45.40;;;;;;5156626;27;19973;-48
2022/02/23 05:29:18;;;;;;;;;;;22.00;45.40;;;;;;5155722;27;20014;-50
2022/02/23 05:31:45;;;;;;;;;;;22.00;45.40;;;;;;5156019;27;19977;-52
2022/02/23 05:34:12;;;;;;;;;;;22.00;45.40;;;;;;5154792;27;19923;-45
2022/02/23 05:36:39;;;;;;;;;;;22.00;45.40;;;;;;5155642;27;20401;-46
2022/02/23 05:39:07;;;;;;;;;;;22.00;46.10;;;;;;5155209;27;19967;-45
2022/02/23 05:41:34;;;;;;;;;;;22.00;45.50;;;;;;5155310;27;19966;-47
2022/02/23 05:44:01;;;;;;;;;;;22.00;45.50;;;;;;5155863;27;20005;-45
2022/02/23 05:46:28;;;;;;;;;;;22.00;45.50;;;;;;5155803;27;20014;-47
2022/02/23 05:48:55;;;;;;;;;;;22.00;45.50;;;;;;5154350;27;19958;-47
2022/02/23 05:51:30;;;;;;;;;;;22.00;45.50;;;;;;5137199;27;19923;-45
2022/02/23 05:53:58;;;;;;;;;;;22.00;45.50;;;;;;5154421;27;19973;-46
2022/02/23 05:56:26;;;;;;;;;;;22.00;45.50;;;;;;5155700;27;20010;-45
2022/02/23 05:58:53;;;;;;;;;;;22.00;45.50;;;;;;5136982;27;20009;-46
2022/02/23 06:01:20;;;;;;;;;;;22.00;45.50;;;;;;5155270;27;19962;-46
2022/02/23 06:03:48;;;;;;;;;;;22.00;45.50;;;;;;5154551;27;19970;-47
2022/02/23 06:06:14;;;;;;;;;;;22.10;45.60;;;;;;5155205;27;20018;-46
2022/02/23 06:08:42;;;;;;;;;;;22.00;45.50;;;;;;5154286;27;20381;-46
2022/02/23 06:11:09;;;;;;;;;;;22.00;45.50;;;;;;5155515;27;19927;-46
2022/02/23 06:13:36;;;;;;;;;;;22.00;45.50;;;;;;5155406;27;20326;-44
2022/02/23 06:16:03;;;;;;;;;;;22.00;45.50;;;;;;5155109;27;19923;-48
2022/02/23 06:18:30;;;;;;;;;;;22.00;45.50;;;;;;5153991;27;19923;-51
2022/02/23 06:20:57;;;;;;;;;;;22.00;45.50;;;;;;5134579;27;19931;-45
2022/02/23 06:23:25;;;;;;;;;;;22.00;45.60;;;;;;5138335;27;19979;-48
2022/02/23 06:25:52;;;;;;;;;;;22.00;45.50;;;;;;5155265;27;19976;-45
2022/02/23 06:28:20;;;;;;;;;;;22.00;45.50;;;;;;5137073;27;20345;-48
2022/02/23 06:30:47;;;;;;;;;;;22.00;45.50;;;;;;5155242;27;19971;-47
2022/02/23 06:33:18;;;;;;;;;;;22.00;45.50;;;;;;5155222;27;19923;-47
2022/02/23 06:35:45;;;;;;;;;;;22.00;45.50;;;;;;5154014;27;19927;-47
2022/02/23 06:38:12;;;;;;;;;;;22.00;45.50;;;;;;5154452;27;19923;-47
2022/02/23 06:40:39;;;;;;;;;;;22.00;46.10;;;;;;5154943;27;19927;-45
2022/02/23 06:43:06;;;;;;;;;;;22.00;45.50;;;;;;5155170;27;20041;-48
2022/02/23 06:45:38;;;;;;;;;;;22.00;45.50;;;;;;5155144;27;19972;-46
2022/02/23 06:48:05;;;;;;;;;;;22.10;45.60;;;;;;5154806;27;19924;-45
2022/02/23 06:50:32;;;;;;;;;;;22.00;45.50;;;;;;5153952;27;20298;-47
2022/02/23 06:52:59;;;;;;;;;;;22.00;45.50;;;;;;5155316;27;19927;-48
2022/02/23 06:55:27;;;;;;;;;;;22.00;45.40;;;;;;5158028;27;20353;-47
2022/02/23 06:57:54;;;;;;;;;;;22.00;45.40;;;;;;5158999;27;20271;-45
2022/02/23 07:00:22;;;;;;;;;;;22.00;45.40;;;;;;5158928;27;19972;-47
2022/02/23 07:02:49;;;;;;;;;;;22.00;45.40;;;;;;5158936;27;20343;-45
2022/02/23 07:05:16;;;;;;;;;;;22.10;45.50;;;;;;5157804;27;19926;-47
2022/02/23 07:07:43;;;;;;;;;;;22.10;45.40;;;;;;5158778;27;19923;-50
2022/02/23 07:10:18;;;;;;;;;;;22.10;45.40;;;;;;5157768;27;19968;-44
2022/02/23 07:12:45;;;;;;;;;;;22.10;45.40;;;;;;5158676;27;19968;-46
2022/02/23 07:15:12;;;;;;;;;;;22.10;45.40;;;;;;5158573;27;19975;-46
2022/02/23 07:17:41;;;;;;;;;;;22.10;45.40;;;;;;5158289;27;19923;-46
2022/02/23 07:20:09;;;;;;;;;;;22.10;45.40;;;;;;5157008;27;19923;-45
2022/02/23 07:22:36;;;;;;;;;;;22.10;45.40;;;;;;5157999;27;19927;-46
2022/02/23 07:25:06;;;;;;;;;;;22.10;45.40;;;;;;5157649;27;19930;-45
2022/02/23 07:27:35;;;;;;;;;;;22.10;45.40;;;;;;5158144;27;20026;-46
2022/02/23 07:30:04;;;;;;;;;;;22.10;45.40;;;;;;5158128;27;20338;-45
2022/02/23 07:32:31;;;;;;;;;;;22.10;45.30;;;;;;5157929;27;19927;-45
2022/02/23 07:34:59;;;;;;;;;;;22.10;45.30;;;;;;5157189;27;19923;-47
2022/02/23 07:37:27;;;;;;;;;;;22.10;45.30;;;;;;5158246;27;19927;-46
2022/02/23 07:40:00;;;;;;;;;;;22.10;45.30;;;;;;5157502;27;19923;-45
2022/02/23 07:42:48;;;;;;;;;;;22.10;45.30;;;;;;5158020;27;20382;-45
2022/02/23 07:45:31;;;;;;;;;;;22.10;45.20;;;;;;5158055;27;19966;-47
2022/02/23 07:47:59;;;;;;;;;;;22.10;45.20;;;;;;5157614;27;19955;-46
2022/02/23 07:50:28;;;;;;;;;;;22.10;45.20;;;;;;5157137;27;19946;-46
2022/02/23 07:52:55;;;;;;;;;;;22.10;45.20;;;;;;5157909;27;19952;-46
2022/02/23 07:55:24;;;;;;;;;;;22.10;45.20;;;;;;5157338;27;19976;-47
2022/02/23 07:57:52;;;;;;;;;;;22.10;45.20;;;;;;5139601;27;19923;-46
2022/02/23 08:00:22;;;;;;;;;;;22.10;45.20;;;;;;5157729;27;19927;-50
2022/02/23 08:02:49;;;;;;;;;;;22.10;45.20;;;;;;5157478;27;20439;-49
2022/02/23 08:05:16;;;;;;;;;;;22.10;45.20;;;;;;5156618;27;19923;-49
2022/02/23 08:07:43;;;;;;;;;;;22.10;45.20;;;;;;5157376;27;19977;-48
2022/02/23 08:10:10;;;;;;;;;;;22.10;45.20;;;;;;5156673;27;19927;-50
2022/02/23 08:12:38;;;;;;;;;;;22.10;45.20;;;;;;5157430;27;19954;-52
2022/02/23 08:20:39;;;;;;;;;;;22.10;45.20;;;;;;5156139;27;19930;-47
2022/02/23 08:23:06;;;;;;;;;;;22.10;45.20;;;;;;5156636;27;19930;-45
2022/02/23 08:25:33;;;;;;;;;;;22.20;45.20;;;;;;5156467;27;19945;-51
2022/02/23 08:28:01;;;;;;;;;;;22.20;45.20;;;;;;5138480;27;19927;-50
2022/02/23 08:30:28;;;;;;;;;;;22.20;45.20;;;;;;5156764;27;19923;-48
2022/02/23 08:33:00;;;;;;;;;;;22.20;45.20;;;;;;5157009;27;19959;-50
2022/02/23 08:35:43;;;;;;;;;;;22.20;45.10;;;;;;5155724;27;19929;-47
2022/02/23 08:38:13;;;;;;;;;;;22.20;45.10;;;;;;5156942;27;19927;-50
2022/02/23 08:40:41;;;;;;;;;;;22.20;45.00;;;;;;5156185;27;20019;-48
2022/02/23 08:43:09;;;;;;;;;;;22.20;45.00;;;;;;5157793;27;20274;-46
2022/02/23 08:45:37;;;;;;;;;;;22.30;45.00;;;;;;5156843;27;19923;-48
2022/02/23 08:48:07;;;;;;;;;;;22.30;44.90;;;;;;5156504;27;19923;-47
2022/02/23 08:50:35;;;;;;;;;;;22.30;45.50;;;;;;5155736;27;19927;-47
2022/02/23 08:53:02;;;;;;;;;;;22.40;44.90;;;;;;5156626;27;19972;-46
2022/02/23 08:55:29;;;;;;;;;;;22.40;44.80;;;;;;5147264;27;19923;-49
2022/02/23 08:57:59;;;;;;;;;;;22.40;44.80;;;;;;5117675;27;19968;-50
2022/02/23 09:00:26;;;;;;;;;;;22.40;44.80;;;;;;5135865;27;19923;-47
2022/02/23 09:02:54;;;;;;;;;;;22.40;44.80;;;;;;5135507;27;19923;-45
2022/02/23 09:05:21;;;;;;;;;;;22.40;44.70;;;;;;5135812;27;19924;-49
2022/02/23 09:07:48;;;;;;;;;;;22.40;44.70;;;;;;5156451;27;19930;-47
2022/02/23 09:10:15;;;;;;;;;;;22.40;44.70;;;;;;5155095;27;20382;-49
2022/02/23 09:12:43;;;;;;;;;;;22.50;44.70;;;;;;5155883;27;19929;-46
2022/02/23 09:15:12;;;;;;;;;;;22.40;44.60;;;;;;5155377;27;19977;-48
2022/02/23 09:17:44;;;;;;;;;;;22.50;44.60;;;;;;5155668;27;20267;-50
2022/02/23 09:20:12;;;;;;;;;;;22.50;44.60;;;;;;5155741;27;20294;-45
2022/02/23 09:22:39;;;;;;;;;;;22.50;44.60;;;;;;5154358;27;19923;-51
2022/02/23 09:25:07;;;;;;;;;;;22.50;44.50;;;;;;5155174;27;20450;-44
2022/02/23 09:27:35;;;;;;;;;;;22.50;44.50;;;;;;5155885;27;20342;-44
2022/02/23 09:30:08;;;;;;;;;;;22.50;44.40;;;;;;5155992;27;19930;-46
2022/02/23 09:32:36;;;;;;;;;;;22.50;44.40;;;;;;5155342;27;19923;-45
2022/02/23 09:35:06;;;;;;;;;;;22.50;44.40;;;;;;5155388;27;19927;-47
2022/02/23 09:37:34;;;;;;;;;;;22.60;44.50;;;;;;5154348;27;20331;-47
2022/02/23 09:40:01;;;;;;;;;;;22.60;44.40;;;;;;5154976;27;20431;-47
2022/02/23 09:42:29;;;;;;;;;;;22.60;44.40;;;;;;5155185;27;20382;-44
2022/02/23 09:44:57;;;;;;;;;;;22.60;44.40;;;;;;5155377;27;19953;-45
2022/02/23 09:47:39;;;;;;;;;;;22.60;44.40;;;;;;5139471;27;20291;-45
2022/02/23 09:50:18;;;;;;;;;;;22.60;44.40;;;;;;5155063;27;19970;-45
2022/02/23 09:52:47;;;;;;;;;;;22.60;44.40;;;;;;5154126;27;19923;-45
2022/02/23 09:55:15;;;;;;;;;;;22.60;44.40;;;;;;5154364;27;20378;-47
2022/02/23 09:57:42;;;;;;;;;;;22.60;44.50;;;;;;5155326;27;19927;-45
2022/02/23 10:00:11;;;;;;;;;;;22.60;44.50;;;;;;5155414;27;19923;-45
2022/02/23 10:02:38;;;;;;;;;;;22.60;44.40;;;;;;5155273;27;19923;-45
2022/02/23 10:05:06;;;;;;;;;;;22.70;44.50;;;;;;5155488;27;20271;-46
2022/02/23 10:07:40;;;;;;;;;;;22.70;44.50;;;;;;5154259;27;19926;-42
2022/02/23 10:10:08;;;;;;;;;;;22.70;44.50;;;;;;5155222;27;19924;-44
2022/02/23 10:12:36;;;;;;;;;;;22.70;44.40;;;;;;5154530;27;19923;-44
2022/02/23 10:15:16;;;;;;;;;;;22.70;44.40;;;;;;5155246;27;19987;-46
2022/02/23 10:17:46;;;;;;;;;;;22.70;44.40;;;;;;5155280;27;19930;-46
2022/02/23 10:20:21;;;;;;;;;;;22.70;44.30;;;;;;5155001;27;19930;-48
2022/02/23 10:22:50;;;;;;;;;;;22.70;44.30;;;;;;5153850;27;19924;-50
2022/02/23 10:25:36;;;;;;;;;;;22.70;44.30;;;;;;5155383;27;19923;-44
2022/02/23 10:28:09;;;;;;;;;;;22.70;44.30;;;;;;5155844;27;19923;-46
2022/02/23 10:30:50;;;;;;;;;;;22.80;44.30;;;;;;5159503;27;19923;-50
2022/02/23 10:33:23;;;;;;;;;;;22.80;44.30;;;;;;5159148;27;19923;-44
2022/02/23 10:36:14;;;;;;;;;;;22.80;44.30;;;;;;5158834;27;19929;-45
2022/02/23 10:38:50;;;;;;;;;;;22.80;44.30;;;;;;5159470;27;20302;-48
2022/02/23 10:41:25;;;;;;;;;;;22.80;44.30;;;;;;5158684;27;19923;-43
2022/02/23 10:43:53;;;;;;;;;;;22.80;44.30;;;;;;5159284;27;19927;-44
2022/02/23 10:46:24;;;;;;;;;;;22.80;44.20;;;;;;5159310;27;20010;-43
2022/02/23 10:48:55;;;;;;;;;;;22.80;44.20;;;;;;5158930;27;19966;-45
2022/02/23 10:51:25;;;;;;;;;;;22.80;44.10;;;;;;5157846;27;19930;-46
2022/02/23 10:53:53;;;;;;;;;;;22.80;44.10;;;;;;5159421;27;19927;-50
2022/02/23 10:56:24;;;;;;;;;;;22.80;44.10;;;;;;5158006;27;19954;-43
2022/02/23 10:59:07;;;;;;;;;;;22.80;44.10;;;;;;5158976;27;19991;-44
2022/02/23 11:01:35;;;;;;;;;;;22.90;44.80;;;;;;5158920;27;19930;-43
2022/02/23 11:04:03;;;;;;;;;;;22.90;44.10;;;;;;5140298;27;20359;-46
2022/02/23 11:06:32;;;;;;;;;;;22.90;44.10;;;;;;5157706;27;19977;-48
2022/02/23 11:08:59;;;;;;;;;;;22.90;44.00;;;;;;5158463;27;19930;-44
2022/02/23 11:11:27;;;;;;;;;;;22.90;44.00;;;;;;5157954;27;19966;-45
2022/02/23 11:13:58;;;;;;;;;;;22.90;44.00;;;;;;5158683;27;20343;-44
2022/02/23 11:16:27;;;;;;;;;;;22.90;44.00;;;;;;5158383;27;19923;-44
2022/02/23 11:18:56;;;;;;;;;;;22.90;44.00;;;;;;5140002;27;19952;-48
2022/02/23 11:21:26;;;;;;;;;;;22.90;44.00;;;;;;5158166;27;20019;-46
2022/02/23 11:23:56;;;;;;;;;;;22.90;44.00;;;;;;5156992;27;20021;-44
2022/02/23 11:26:24;;;;;;;;;;;22.90;43.90;;;;;;5139487;27;19923;-47
2022/02/23 11:29:12;;;;;;;;;;;22.90;44.00;;;;;;5158478;27;19967;-45
2022/02/23 11:31:39;;;;;;;;;;;22.90;44.00;;;;;;5139803;27;19980;-44
2022/02/23 11:34:07;;;;;;;;;;;22.90;44.00;;;;;;5158270;27;19965;-45
2022/02/23 11:36:39;;;;;;;;;;;22.90;44.00;;;;;;5158230;27;19923;-43
2022/02/23 11:39:07;;;;;;;;;;;22.90;44.00;;;;;;5156769;27;20339;-46
2022/02/23 11:41:38;;;;;;;;;;;22.90;44.00;;;;;;5138877;27;19923;-44
2022/02/23 11:44:08;;;;;;;;;;;22.90;44.00;;;;;;5158120;27;20337;-47
2022/02/23 11:46:50;;;;;;;;;;;22.90;44.00;;;;;;5158160;27;19923;-44
2022/02/23 11:49:21;;;;;;;;;;;22.90;44.00;;;;;;5157789;27;19923;-46
2022/02/23 11:52:03;;;;;;;;;;;22.90;44.00;;;;;;5157686;27;19969;-44
2022/02/23 11:54:49;;;;;;;;;;;22.90;44.00;;;;;;5136914;27;19923;-43
2022/02/23 11:57:31;;;;;;;;;;;22.90;44.00;;;;;;5142748;27;19923;-43
2022/02/23 11:59:58;;;;;;;;;;;22.90;44.00;;;;;;5158191;27;20026;-47
2022/02/23 12:02:30;;;;;;;;;;;22.90;43.90;;;;;;5157883;27;19962;-46
2022/02/23 12:04:59;;;;;;;;;;;22.90;43.90;;;;;;5157530;27;19945;-45
2022/02/23 12:07:43;;;;;;;;;;;22.90;43.90;;;;;;5156231;27;19933;-45
2022/02/23 12:10:10;;;;;;;;;;;23.00;44.00;;;;;;5157430;27;19930;-46
2022/02/23 12:12:41;;;;;;;;;;;22.90;43.90;;;;;;5156983;27;20452;-46
2022/02/23 12:15:26;;;;;;;;;;;22.90;43.90;;;;;;5157451;27;19975;-48
2022/02/23 12:17:59;;;;;;;;;;;22.90;43.90;;;;;;5157175;27;20025;-50
2022/02/23 12:20:37;;;;;;;;;;;23.00;44.00;;;;;;5157242;27;19923;-46
2022/02/23 12:23:06;;;;;;;;;;;23.00;44.00;;;;;;5155750;27;19970;-45
2022/02/23 12:25:55;;;;;;;;;;;23.00;43.90;;;;;;5157069;27;20330;-44
2022/02/23 12:28:32;;;;;;;;;;;23.00;44.00;;;;;;5156658;27;19991;-43
2022/02/23 12:31:00;;;;;;;;;;;23.00;43.90;;;;;;5156972;27;19923;-46
2022/02/23 12:33:28;;;;;;;;;;;23.00;43.90;;;;;;5139146;27;19990;-46
2022/02/23 12:35:56;;;;;;;;;;;23.00;44.00;;;;;;5138598;27;19973;-49
2022/02/23 12:38:30;;;;;;;;;;;23.00;43.90;;;;;;5137488;27;19927;-46
2022/02/23 12:40:57;;;;;;;;;;;23.00;43.90;;;;;;5156786;27;19931;-48
2022/02/23 12:43:28;;;;;;;;;;;23.00;43.80;;;;;;5156417;27;20290;-44
2022/02/23 12:45:58;;;;;;;;;;;23.00;43.80;;;;;;5157207;27;19946;-48
2022/02/23 12:48:30;;;;;;;;;;;23.00;43.80;;;;;;5156889;27;19923;-44
2022/02/23 12:51:01;;;;;;;;;;;23.00;43.80;;;;;;5155896;27;19923;-45
2022/02/23 12:53:41;;;;;;;;;;;23.00;43.80;;;;;;5155327;27;20441;-46
2022/02/23 12:56:15;;;;;;;;;;;23.00;43.80;;;;;;5138034;27;20013;-43
2022/02/23 12:58:42;;;;;;;;;;;23.00;43.80;;;;;;5155512;27;19923;-49
2022/02/23 13:01:16;;;;;;;;;;;23.00;43.80;;;;;;5156650;27;19930;-49
2022/02/23 13:03:43;;;;;;;;;;;23.00;43.70;;;;;;5156289;27;20434;-49
2022/02/23 13:06:10;;;;;;;;;;;23.00;43.70;;;;;;5156213;27;20379;-47
2022/02/23 13:08:37;;;;;;;;;;;23.00;43.70;;;;;;5155004;27;20473;-45
2022/02/23 13:11:06;;;;;;;;;;;23.00;43.60;;;;;;5156449;27;19923;-47
2022/02/23 13:13:34;;;;;;;;;;;23.10;44.30;;;;;;5155657;27;20352;-44
2022/02/23 13:16:01;;;;;;;;;;;23.10;43.70;;;;;;5155999;27;19930;-47
2022/02/23 13:18:28;;;;;;;;;;;23.10;43.70;;;;;;5155869;27;19923;-46
2022/02/23 13:21:07;;;;;;;;;;;23.10;43.60;;;;;;5156026;27;20374;-51
2022/02/23 13:23:57;;;;;;;;;;;23.10;43.60;;;;;;5154580;27;20405;-44
2022/02/23 13:26:35;;;;;;;;;;;23.10;43.60;;;;;;5137681;27;20379;-44
2022/02/23 13:29:04;;;;;;;;;;;23.10;43.60;;;;;;5155124;27;20450;-46
2022/02/23 13:31:31;;;;;;;;;;;23.10;43.60;;;;;;5156080;27;19923;-44
2022/02/23 13:34:17;;;;;;;;;;;23.10;43.60;;;;;;5155635;27;19923;-45
2022/02/23 13:36:44;;;;;;;;;;;23.10;43.60;;;;;;5137405;27;20408;-43
2022/02/23 13:39:15;;;;;;;;;;;23.10;43.60;;;;;;5154510;27;19923;-47
2022/02/23 13:42:00;;;;;;;;;;;23.10;43.60;;;;;;5137251;27;19927;-43
2022/02/23 13:44:34;;;;;;;;;;;23.10;43.60;;;;;;5155360;27;19946;-48
2022/02/23 13:47:03;;;;;;;;;;;23.10;43.60;;;;;;5155931;27;20365;-43
2022/02/23 13:49:31;;;;;;;;;;;23.10;43.60;;;;;;5155822;27;19923;-45
2022/02/23 13:52:04;;;;;;;;;;;23.10;43.60;;;;;;5155240;27;19933;-44
2022/02/23 13:54:32;;;;;;;;;;;23.10;43.60;;;;;;5154542;27;19923;-46
2022/02/23 13:56:59;;;;;;;;;;;23.10;43.70;;;;;;5137427;27;19931;-44
2022/02/23 13:59:46;;;;;;;;;;;23.10;43.60;;;;;;5155022;27;20293;-46
2022/02/23 14:02:13;;;;;;;;;;;23.10;43.60;;;;;;5155485;27;19987;-51
2022/02/23 14:04:42;;;;;;;;;;;23.10;43.60;;;;;;5155604;27;19972;-48
2022/02/23 14:07:12;;;;;;;;;;;23.10;43.60;;;;;;5155593;27;19923;-45
2022/02/23 14:09:40;;;;;;;;;;;23.10;43.60;;;;;;5154106;27;19923;-46
2022/02/23 14:12:10;;;;;;;;;;;23.10;43.60;;;;;;5155200;27;19975;-44
2022/02/23 14:14:41;;;;;;;;;;;23.10;43.60;;;;;;5154651;27;19923;-44
2022/02/23 14:17:14;;;;;;;;;;;23.10;43.60;;;;;;5155527;27;20343;-47
2022/02/23 14:19:42;;;;;;;;;;;23.10;43.50;;;;;;5155083;27;19948;-44
2022/02/23 14:22:15;;;;;;;;;;;23.10;43.50;;;;;;5155243;27;19923;-48
2022/02/23 14:24:42;;;;;;;;;;;23.10;43.50;;;;;;5154420;27;19987;-46
2022/02/23 14:27:14;;;;;;;;;;;23.10;43.50;;;;;;5155416;27;19923;-47
2022/02/23 14:29:48;;;;;;;;;;;23.10;43.60;;;;;;5154330;27;19923;-49
2022/02/23 14:32:19;;;;;;;;;;;23.10;43.60;;;;;;5155350;27;19930;-49
2022/02/23 14:34:47;;;;;;;;;;;23.10;43.60;;;;;;5154600;27;19923;-43